sensor_id;sensor_type;location;lat;lon;timestamp;temperature;humidity
75824;DHT22;64457;51.976;9.834;2023-03-01T00:01:01;0.90;88.60
75824;DHT22;64457;51.976;9.834;2023-03-01T00:03:28;0.90;88.90
75824;DHT22;64457;51.976;9.834;2023-03-01T00:05:57;0.90;88.90
75824;DHT22;64457;51.976;9.834;2023-03-01T00:08:25;0.90;89.00
75824;DHT22;64457;51.976;9.834;2023-03-01T00:11:00;0.90;89.20
75824;DHT22;64457;51.976;9.834;2023-03-01T00:13:29;0.80;88.90
75824;DHT22;64457;51.976;9.834;2023-03-01T00:15:56;0.90;88.80
75824;DHT22;64457;51.976;9.834;2023-03-01T00:18:24;0.80;88.20
75824;DHT22;64457;51.976;9.834;2023-03-01T00:20:51;0.70;89.00
75824;DHT22;64457;51.976;9.834;2023-03-01T00:23:20;0.70;90.00
75824;DHT22;64457;51.976;9.834;2023-03-01T00:25:52;0.70;89.90
75824;DHT22;64457;51.976;9.834;2023-03-01T00:28:19;0.60;89.60
75824;DHT22;64457;51.976;9.834;2023-03-01T00:30:48;0.50;90.00
75824;DHT22;64457;51.976;9.834;2023-03-01T00:33:15;0.50;90.00
75824;DHT22;64457;51.976;9.834;2023-03-01T00:35:42;0.50;90.00
75824;DHT22;64457;51.976;9.834;2023-03-01T00:38:10;0.50;90.00
75824;DHT22;64457;51.976;9.834;2023-03-01T00:40:38;0.60;89.40
75824;DHT22;64457;51.976;9.834;2023-03-01T00:43:05;0.60;89.30
75824;DHT22;64457;51.976;9.834;2023-03-01T00:45:33;0.50;90.00
75824;DHT22;64457;51.976;9.834;2023-03-01T00:48:00;0.50;89.50
75824;DHT22;64457;51.976;9.834;2023-03-01T00:50:27;0.50;89.60
75824;DHT22;64457;51.976;9.834;2023-03-01T00:52:55;0.50;89.30
75824;DHT22;64457;51.976;9.834;2023-03-01T00:55:23;0.50;89.20
75824;DHT22;64457;51.976;9.834;2023-03-01T00:57:52;0.50;89.40
75824;DHT22;64457;51.976;9.834;2023-03-01T01:00:21;0.40;89.10
75824;DHT22;64457;51.976;9.834;2023-03-01T01:02:48;0.40;89.70
75824;DHT22;64457;51.976;9.834;2023-03-01T01:05:16;0.40;89.40
75824;DHT22;64457;51.976;9.834;2023-03-01T01:07:47;0.30;89.20
75824;DHT22;64457;51.976;9.834;2023-03-01T01:10:14;0.30;89.50
75824;DHT22;64457;51.976;9.834;2023-03-01T01:12:44;0.30;89.50
75824;DHT22;64457;51.976;9.834;2023-03-01T01:15:13;0.30;89.70
75824;DHT22;64457;51.976;9.834;2023-03-01T01:17:42;0.20;89.50
75824;DHT22;64457;51.976;9.834;2023-03-01T01:20:10;0.20;89.60
75824;DHT22;64457;51.976;9.834;2023-03-01T01:22:38;0.20;90.00
75824;DHT22;64457;51.976;9.834;2023-03-01T01:25:06;0.20;89.70
75824;DHT22;64457;51.976;9.834;2023-03-01T01:27:34;0.30;89.10
75824;DHT22;64457;51.976;9.834;2023-03-01T01:30:01;0.20;88.70
75824;DHT22;64457;51.976;9.834;2023-03-01T01:32:30;0.20;88.90
75824;DHT22;64457;51.976;9.834;2023-03-01T01:34:57;0.10;89.90
75824;DHT22;64457;51.976;9.834;2023-03-01T01:37:24;0.20;90.00
75824;DHT22;64457;51.976;9.834;2023-03-01T01:39:57;0.20;89.80
75824;DHT22;64457;51.976;9.834;2023-03-01T01:42:24;0.20;90.00
75824;DHT22;64457;51.976;9.834;2023-03-01T01:47:59;0.00;90.10
75824;DHT22;64457;51.976;9.834;2023-03-01T01:50:29;0.00;90.30
75824;DHT22;64457;51.976;9.834;2023-03-01T01:53:05;0.00;89.60
75824;DHT22;64457;51.976;9.834;2023-03-01T01:55:37;0.00;89.80
75824;DHT22;64457;51.976;9.834;2023-03-01T01:58:09;0.00;89.90
75824;DHT22;64457;51.976;9.834;2023-03-01T02:00:38;0.00;90.00
75824;DHT22;64457;51.976;9.834;2023-03-01T02:03:11;0.00;90.20
75824;DHT22;64457;51.976;9.834;2023-03-01T02:05:46;-0.10;90.30
75824;DHT22;64457;51.976;9.834;2023-03-01T02:08:16;0.00;90.20
75824;DHT22;64457;51.976;9.834;2023-03-01T02:10:46;0.00;90.10
75824;DHT22;64457;51.976;9.834;2023-03-01T02:13:14;-0.10;90.20
75824;DHT22;64457;51.976;9.834;2023-03-01T02:15:42;0.20;90.40
75824;DHT22;64457;51.976;9.834;2023-03-01T02:18:12;0.00;90.00
75824;DHT22;64457;51.976;9.834;2023-03-01T02:20:51;-0.10;88.90
75824;DHT22;64457;51.976;9.834;2023-03-01T02:23:23;-0.10;88.80
75824;DHT22;64457;51.976;9.834;2023-03-01T02:25:57;-0.10;89.20
75824;DHT22;64457;51.976;9.834;2023-03-01T02:28:30;-0.10;89.40
75824;DHT22;64457;51.976;9.834;2023-03-01T02:30:58;-0.20;90.00
75824;DHT22;64457;51.976;9.834;2023-03-01T02:33:44;-0.30;90.00
75824;DHT22;64457;51.976;9.834;2023-03-01T02:36:17;-0.30;90.10
75824;DHT22;64457;51.976;9.834;2023-03-01T02:38:48;-0.10;90.20
75824;DHT22;64457;51.976;9.834;2023-03-01T02:41:19;-0.30;90.10
75824;DHT22;64457;51.976;9.834;2023-03-01T02:43:49;-0.40;90.10
75824;DHT22;64457;51.976;9.834;2023-03-01T02:46:17;-0.40;90.20
75824;DHT22;64457;51.976;9.834;2023-03-01T02:48:47;-0.40;90.10
75824;DHT22;64457;51.976;9.834;2023-03-01T02:51:27;-0.40;90.40
75824;DHT22;64457;51.976;9.834;2023-03-01T02:54:09;-0.40;90.40
75824;DHT22;64457;51.976;9.834;2023-03-01T02:56:43;-0.40;90.30
75824;DHT22;64457;51.976;9.834;2023-03-01T02:59:16;-0.50;90.20
75824;DHT22;64457;51.976;9.834;2023-03-01T03:01:45;-0.50;90.30
75824;DHT22;64457;51.976;9.834;2023-03-01T03:04:14;-0.60;90.20
75824;DHT22;64457;51.976;9.834;2023-03-01T03:06:44;-0.60;90.40
75824;DHT22;64457;51.976;9.834;2023-03-01T03:09:12;-0.50;90.40
75824;DHT22;64457;51.976;9.834;2023-03-01T03:11:39;-0.50;90.30
75824;DHT22;64457;51.976;9.834;2023-03-01T03:14:09;-0.60;90.30
75824;DHT22;64457;51.976;9.834;2023-03-01T03:16:41;-0.60;90.30
75824;DHT22;64457;51.976;9.834;2023-03-01T03:19:09;-0.60;90.30
75824;DHT22;64457;51.976;9.834;2023-03-01T03:21:36;-0.60;90.20
75824;DHT22;64457;51.976;9.834;2023-03-01T03:24:04;-0.80;90.20
75824;DHT22;64457;51.976;9.834;2023-03-01T03:26:32;-0.80;90.50
75824;DHT22;64457;51.976;9.834;2023-03-01T03:28:59;-0.70;90.50
75824;DHT22;64457;51.976;9.834;2023-03-01T03:31:27;-0.70;90.40
75824;DHT22;64457;51.976;9.834;2023-03-01T03:33:55;-0.50;90.40
75824;DHT22;64457;51.976;9.834;2023-03-01T03:36:24;-0.70;90.20
75824;DHT22;64457;51.976;9.834;2023-03-01T03:38:52;-0.60;90.40
75824;DHT22;64457;51.976;9.834;2023-03-01T03:41:19;-0.70;90.20
75824;DHT22;64457;51.976;9.834;2023-03-01T03:43:46;-0.60;90.20
75824;DHT22;64457;51.976;9.834;2023-03-01T03:46:14;-0.60;90.00
75824;DHT22;64457;51.976;9.834;2023-03-01T03:48:44;-0.60;90.00
75824;DHT22;64457;51.976;9.834;2023-03-01T03:51:15;-0.60;90.00
75824;DHT22;64457;51.976;9.834;2023-03-01T03:53:45;-0.70;90.00
75824;DHT22;64457;51.976;9.834;2023-03-01T03:56:12;-0.70;90.10
75824;DHT22;64457;51.976;9.834;2023-03-01T03:58:41;-0.90;90.20
75824;DHT22;64457;51.976;9.834;2023-03-01T04:01:08;-0.80;90.20
75824;DHT22;64457;51.976;9.834;2023-03-01T04:03:35;-0.80;90.10
75824;DHT22;64457;51.976;9.834;2023-03-01T04:06:02;-0.80;90.10
75824;DHT22;64457;51.976;9.834;2023-03-01T04:08:33;-0.90;90.10
75824;DHT22;64457;51.976;9.834;2023-03-01T04:11:01;-0.80;90.10
75824;DHT22;64457;51.976;9.834;2023-03-01T04:13:52;-0.80;90.10
75824;DHT22;64457;51.976;9.834;2023-03-01T04:16:20;-0.80;90.00
75824;DHT22;64457;51.976;9.834;2023-03-01T04:18:47;-0.80;90.10
75824;DHT22;64457;51.976;9.834;2023-03-01T04:21:14;-0.80;89.80
75824;DHT22;64457;51.976;9.834;2023-03-01T04:23:43;-0.80;89.60
75824;DHT22;64457;51.976;9.834;2023-03-01T04:26:10;-1.00;90.00
75824;DHT22;64457;51.976;9.834;2023-03-01T04:28:39;-1.00;90.00
75824;DHT22;64457;51.976;9.834;2023-03-01T04:31:10;-1.00;90.10
75824;DHT22;64457;51.976;9.834;2023-03-01T04:33:44;-1.00;90.30
75824;DHT22;64457;51.976;9.834;2023-03-01T04:36:15;-1.00;90.20
75824;DHT22;64457;51.976;9.834;2023-03-01T04:38:45;-1.10;90.30
75824;DHT22;64457;51.976;9.834;2023-03-01T04:41:14;-1.10;90.40
75824;DHT22;64457;51.976;9.834;2023-03-01T04:43:42;-1.00;90.40
75824;DHT22;64457;51.976;9.834;2023-03-01T04:46:12;-1.10;90.50
75824;DHT22;64457;51.976;9.834;2023-03-01T04:48:41;-1.20;90.40
75824;DHT22;64457;51.976;9.834;2023-03-01T04:51:09;-1.20;90.50
75824;DHT22;64457;51.976;9.834;2023-03-01T04:53:39;-1.10;90.70
75824;DHT22;64457;51.976;9.834;2023-03-01T04:56:08;-1.20;90.60
75824;DHT22;64457;51.976;9.834;2023-03-01T04:58:35;-1.10;90.70
75824;DHT22;64457;51.976;9.834;2023-03-01T05:01:09;-1.00;90.50
75824;DHT22;64457;51.976;9.834;2023-03-01T05:03:41;-1.10;90.40
75824;DHT22;64457;51.976;9.834;2023-03-01T05:06:09;-1.20;90.40
75824;DHT22;64457;51.976;9.834;2023-03-01T05:08:37;-1.20;90.30
75824;DHT22;64457;51.976;9.834;2023-03-01T05:11:05;-1.10;90.30
75824;DHT22;64457;51.976;9.834;2023-03-01T05:13:35;-1.10;90.30
75824;DHT22;64457;51.976;9.834;2023-03-01T05:16:04;-1.10;90.40
75824;DHT22;64457;51.976;9.834;2023-03-01T05:18:37;-1.10;90.30
75824;DHT22;64457;51.976;9.834;2023-03-01T05:21:06;-1.10;90.30
75824;DHT22;64457;51.976;9.834;2023-03-01T05:23:34;-1.10;90.30
75824;DHT22;64457;51.976;9.834;2023-03-01T05:26:02;-1.10;90.30
75824;DHT22;64457;51.976;9.834;2023-03-01T05:28:32;-1.10;90.20
75824;DHT22;64457;51.976;9.834;2023-03-01T05:31:00;-1.20;90.20
75824;DHT22;64457;51.976;9.834;2023-03-01T05:33:27;-1.10;90.20
75824;DHT22;64457;51.976;9.834;2023-03-01T05:35:59;-1.20;90.10
75824;DHT22;64457;51.976;9.834;2023-03-01T05:38:26;-1.30;90.20
75824;DHT22;64457;51.976;9.834;2023-03-01T05:40:53;-1.20;90.20
75824;DHT22;64457;51.976;9.834;2023-03-01T05:43:21;-1.20;90.20
75824;DHT22;64457;51.976;9.834;2023-03-01T05:45:49;-1.20;90.20
75824;DHT22;64457;51.976;9.834;2023-03-01T05:48:17;-1.20;90.10
75824;DHT22;64457;51.976;9.834;2023-03-01T05:50:45;-1.20;90.10
75824;DHT22;64457;51.976;9.834;2023-03-01T05:53:14;-1.30;90.10
75824;DHT22;64457;51.976;9.834;2023-03-01T05:55:43;-1.20;90.60
75824;DHT22;64457;51.976;9.834;2023-03-01T05:58:14;-1.20;90.20
75824;DHT22;64457;51.976;9.834;2023-03-01T06:00:43;-1.30;90.10
75824;DHT22;64457;51.976;9.834;2023-03-01T06:03:14;-1.30;90.30
75824;DHT22;64457;51.976;9.834;2023-03-01T06:05:42;-1.20;90.00
75824;DHT22;64457;51.976;9.834;2023-03-01T06:08:11;-1.40;90.00
75824;DHT22;64457;51.976;9.834;2023-03-01T06:10:39;-1.30;90.20
75824;DHT22;64457;51.976;9.834;2023-03-01T06:13:06;-1.40;90.10
75824;DHT22;64457;51.976;9.834;2023-03-01T06:15:33;-1.50;90.20
75824;DHT22;64457;51.976;9.834;2023-03-01T06:18:00;-1.60;90.30
75824;DHT22;64457;51.976;9.834;2023-03-01T06:20:29;-1.70;90.90
75824;DHT22;64457;51.976;9.834;2023-03-01T06:22:57;-1.60;90.70
75824;DHT22;64457;51.976;9.834;2023-03-01T06:25:26;-1.60;90.70
75824;DHT22;64457;51.976;9.834;2023-03-01T06:27:54;-1.40;90.70
75824;DHT22;64457;51.976;9.834;2023-03-01T06:30:23;-1.30;90.40
75824;DHT22;64457;51.976;9.834;2023-03-01T06:32:51;-1.30;90.40
75824;DHT22;64457;51.976;9.834;2023-03-01T06:35:26;-1.30;90.40
75824;DHT22;64457;51.976;9.834;2023-03-01T06:37:57;-1.30;90.40
75824;DHT22;64457;51.976;9.834;2023-03-01T06:40:25;-1.30;90.50
75824;DHT22;64457;51.976;9.834;2023-03-01T06:42:52;-1.20;90.50
75824;DHT22;64457;51.976;9.834;2023-03-01T06:45:20;-1.20;90.40
75824;DHT22;64457;51.976;9.834;2023-03-01T06:47:47;-1.20;90.50
75824;DHT22;64457;51.976;9.834;2023-03-01T06:50:15;-1.30;90.50
75824;DHT22;64457;51.976;9.834;2023-03-01T06:52:43;-1.20;90.70
75824;DHT22;64457;51.976;9.834;2023-03-01T06:55:13;-1.10;90.70
75824;DHT22;64457;51.976;9.834;2023-03-01T06:57:40;-1.20;90.60
75824;DHT22;64457;51.976;9.834;2023-03-01T07:00:09;-1.10;90.60
75824;DHT22;64457;51.976;9.834;2023-03-01T07:02:37;-1.20;90.60
75824;DHT22;64457;51.976;9.834;2023-03-01T07:05:05;-1.20;90.90
75824;DHT22;64457;51.976;9.834;2023-03-01T07:07:32;-1.00;90.30
75824;DHT22;64457;51.976;9.834;2023-03-01T07:10:00;-1.00;90.00
75824;DHT22;64457;51.976;9.834;2023-03-01T07:12:28;-1.00;90.20
75824;DHT22;64457;51.976;9.834;2023-03-01T07:14:56;-1.00;90.50
75824;DHT22;64457;51.976;9.834;2023-03-01T07:17:23;-0.80;90.70
75824;DHT22;64457;51.976;9.834;2023-03-01T07:19:50;-0.70;90.50
75824;DHT22;64457;51.976;9.834;2023-03-01T07:22:17;-0.60;90.60
75824;DHT22;64457;51.976;9.834;2023-03-01T07:24:44;-0.40;90.60
75824;DHT22;64457;51.976;9.834;2023-03-01T07:27:12;-0.40;90.50
75824;DHT22;64457;51.976;9.834;2023-03-01T07:29:40;-0.40;90.70
75824;DHT22;64457;51.976;9.834;2023-03-01T07:32:07;-0.40;90.70
75824;DHT22;64457;51.976;9.834;2023-03-01T07:34:35;-0.40;90.80
75824;DHT22;64457;51.976;9.834;2023-03-01T07:37:02;0.00;92.10
75824;DHT22;64457;51.976;9.834;2023-03-01T07:39:29;1.10;94.40
75824;DHT22;64457;51.976;9.834;2023-03-01T07:41:58;2.70;94.50
75824;DHT22;64457;51.976;9.834;2023-03-01T07:44:25;4.60;92.50
75824;DHT22;64457;51.976;9.834;2023-03-01T07:46:55;6.30;87.70
75824;DHT22;64457;51.976;9.834;2023-03-01T07:49:23;8.00;77.80
75824;DHT22;64457;51.976;9.834;2023-03-01T07:51:53;9.20;72.60
75824;DHT22;64457;51.976;9.834;2023-03-01T07:54:20;10.30;67.00
75824;DHT22;64457;51.976;9.834;2023-03-01T07:56:47;10.90;64.20
75824;DHT22;64457;51.976;9.834;2023-03-01T07:59:14;11.80;64.90
75824;DHT22;64457;51.976;9.834;2023-03-01T08:01:43;12.80;64.40
75824;DHT22;64457;51.976;9.834;2023-03-01T08:04:12;13.60;60.40
75824;DHT22;64457;51.976;9.834;2023-03-01T08:06:40;14.30;60.30
75824;DHT22;64457;51.976;9.834;2023-03-01T08:09:07;14.80;58.20
75824;DHT22;64457;51.976;9.834;2023-03-01T08:11:34;14.90;55.60
75824;DHT22;64457;51.976;9.834;2023-03-01T08:14:03;15.70;54.70
75824;DHT22;64457;51.976;9.834;2023-03-01T08:16:30;16.20;52.50
75824;DHT22;64457;51.976;9.834;2023-03-01T08:19:04;16.80;53.60
75824;DHT22;64457;51.976;9.834;2023-03-01T08:21:33;17.00;50.80
75824;DHT22;64457;51.976;9.834;2023-03-01T08:24:01;16.70;49.90
75824;DHT22;64457;51.976;9.834;2023-03-01T08:26:28;16.30;50.00
75824;DHT22;64457;51.976;9.834;2023-03-01T08:28:56;16.30;49.80
75824;DHT22;64457;51.976;9.834;2023-03-01T08:31:25;15.90;51.40
75824;DHT22;64457;51.976;9.834;2023-03-01T08:33:56;15.90;50.20
75824;DHT22;64457;51.976;9.834;2023-03-01T08:36:26;16.20;51.30
75824;DHT22;64457;51.976;9.834;2023-03-01T08:38:55;16.90;51.50
75824;DHT22;64457;51.976;9.834;2023-03-01T08:41:23;17.20;52.70
75824;DHT22;64457;51.976;9.834;2023-03-01T08:43:51;16.60;51.70
75824;DHT22;64457;51.976;9.834;2023-03-01T08:46:24;16.40;51.90
75824;DHT22;64457;51.976;9.834;2023-03-01T08:48:52;16.50;52.20
75824;DHT22;64457;51.976;9.834;2023-03-01T08:51:21;16.90;52.50
75824;DHT22;64457;51.976;9.834;2023-03-01T08:53:49;17.20;50.50
75824;DHT22;64457;51.976;9.834;2023-03-01T08:56:18;16.90;49.50
75824;DHT22;64457;51.976;9.834;2023-03-01T08:58:47;16.40;49.70
75824;DHT22;64457;51.976;9.834;2023-03-01T09:01:16;15.90;51.00
75824;DHT22;64457;51.976;9.834;2023-03-01T09:03:45;15.80;52.30
75824;DHT22;64457;51.976;9.834;2023-03-01T09:06:13;16.30;52.60
75824;DHT22;64457;51.976;9.834;2023-03-01T09:08:42;16.30;51.40
75824;DHT22;64457;51.976;9.834;2023-03-01T09:11:13;16.40;53.20
75824;DHT22;64457;51.976;9.834;2023-03-01T09:13:43;16.70;52.60
75824;DHT22;64457;51.976;9.834;2023-03-01T09:16:13;16.80;50.50
75824;DHT22;64457;51.976;9.834;2023-03-01T09:18:42;16.80;51.00
75824;DHT22;64457;51.976;9.834;2023-03-01T09:21:11;16.40;50.60
75824;DHT22;64457;51.976;9.834;2023-03-01T09:23:41;16.30;51.20
75824;DHT22;64457;51.976;9.834;2023-03-01T09:26:11;15.80;51.10
75824;DHT22;64457;51.976;9.834;2023-03-01T09:28:43;14.90;51.60
75824;DHT22;64457;51.976;9.834;2023-03-01T09:31:11;13.80;51.80
75824;DHT22;64457;51.976;9.834;2023-03-01T09:33:39;12.70;54.90
75824;DHT22;64457;51.976;9.834;2023-03-01T09:36:12;11.20;56.70
75824;DHT22;64457;51.976;9.834;2023-03-01T09:38:40;10.00;60.70
75824;DHT22;64457;51.976;9.834;2023-03-01T09:41:11;9.90;64.70
75824;DHT22;64457;51.976;9.834;2023-03-01T09:43:55;10.60;62.40
75824;DHT22;64457;51.976;9.834;2023-03-01T09:46:25;11.70;61.70
75824;DHT22;64457;51.976;9.834;2023-03-01T09:48:57;12.60;60.40
75824;DHT22;64457;51.976;9.834;2023-03-01T09:51:29;13.30;58.70
75824;DHT22;64457;51.976;9.834;2023-03-01T09:53:57;13.50;56.30
75824;DHT22;64457;51.976;9.834;2023-03-01T09:56:29;13.30;56.20
75824;DHT22;64457;51.976;9.834;2023-03-01T09:59:11;13.90;53.70
75824;DHT22;64457;51.976;9.834;2023-03-01T10:01:50;14.40;55.30
75824;DHT22;64457;51.976;9.834;2023-03-01T10:04:32;14.30;52.90
75824;DHT22;64457;51.976;9.834;2023-03-01T10:07:17;15.30;52.30
75824;DHT22;64457;51.976;9.834;2023-03-01T10:09:49;15.50;50.20
75824;DHT22;64457;51.976;9.834;2023-03-01T10:12:18;15.70;49.20
75824;DHT22;64457;51.976;9.834;2023-03-01T10:14:57;16.20;50.70
75824;DHT22;64457;51.976;9.834;2023-03-01T10:17:32;16.60;47.00
75824;DHT22;64457;51.976;9.834;2023-03-01T10:20:16;17.10;51.70
75824;DHT22;64457;51.976;9.834;2023-03-01T10:22:45;17.10;47.50
75824;DHT22;64457;51.976;9.834;2023-03-01T10:25:23;17.00;47.90
75824;DHT22;64457;51.976;9.834;2023-03-01T10:28:02;17.20;48.40
75824;DHT22;64457;51.976;9.834;2023-03-01T10:30:36;16.30;46.90
75824;DHT22;64457;51.976;9.834;2023-03-01T10:33:14;16.30;46.90
75824;DHT22;64457;51.976;9.834;2023-03-01T10:35:43;15.90;51.10
75824;DHT22;64457;51.976;9.834;2023-03-01T10:38:12;16.20;49.50
75824;DHT22;64457;51.976;9.834;2023-03-01T10:40:51;16.10;47.50
75824;DHT22;64457;51.976;9.834;2023-03-01T10:43:20;15.80;50.70
75824;DHT22;64457;51.976;9.834;2023-03-01T10:45:49;15.20;49.40
75824;DHT22;64457;51.976;9.834;2023-03-01T10:48:18;15.40;47.90
75824;DHT22;64457;51.976;9.834;2023-03-01T10:50:51;15.50;50.10
75824;DHT22;64457;51.976;9.834;2023-03-01T10:53:34;15.50;48.50
75824;DHT22;64457;51.976;9.834;2023-03-01T10:56:05;15.20;48.40
75824;DHT22;64457;51.976;9.834;2023-03-01T10:58:35;14.90;49.70
75824;DHT22;64457;51.976;9.834;2023-03-01T11:01:06;14.50;48.50
75824;DHT22;64457;51.976;9.834;2023-03-01T11:04:09;14.40;49.10
75824;DHT22;64457;51.976;9.834;2023-03-01T11:06:39;14.10;51.80
75824;DHT22;64457;51.976;9.834;2023-03-01T11:09:20;14.20;51.80
75824;DHT22;64457;51.976;9.834;2023-03-01T11:11:52;14.40;51.40
75824;DHT22;64457;51.976;9.834;2023-03-01T11:14:22;13.60;49.10
75824;DHT22;64457;51.976;9.834;2023-03-01T11:17:02;13.40;51.00
75824;DHT22;64457;51.976;9.834;2023-03-01T11:19:31;13.90;53.70
75824;DHT22;64457;51.976;9.834;2023-03-01T11:22:02;13.70;49.70
75824;DHT22;64457;51.976;9.834;2023-03-01T11:24:36;14.30;52.70
75824;DHT22;64457;51.976;9.834;2023-03-01T11:27:16;13.60;50.90
75824;DHT22;64457;51.976;9.834;2023-03-01T11:29:48;13.00;50.00
75824;DHT22;64457;51.976;9.834;2023-03-01T11:32:21;12.80;50.10
75824;DHT22;64457;51.976;9.834;2023-03-01T11:34:55;12.90;54.10
75824;DHT22;64457;51.976;9.834;2023-03-01T11:37:32;13.00;51.20
75824;DHT22;64457;51.976;9.834;2023-03-01T11:40:10;13.30;51.70
75824;DHT22;64457;51.976;9.834;2023-03-01T11:42:50;13.20;50.50
75824;DHT22;64457;51.976;9.834;2023-03-01T11:45:24;13.40;53.30
75824;DHT22;64457;51.976;9.834;2023-03-01T11:48:07;13.20;50.70
75824;DHT22;64457;51.976;9.834;2023-03-01T11:50:52;12.60;51.70
75824;DHT22;64457;51.976;9.834;2023-03-01T11:53:34;12.60;51.40
75824;DHT22;64457;51.976;9.834;2023-03-01T11:56:19;12.80;54.60
75824;DHT22;64457;51.976;9.834;2023-03-01T11:59:01;13.10;53.00
75824;DHT22;64457;51.976;9.834;2023-03-01T12:01:44;13.40;53.90
75824;DHT22;64457;51.976;9.834;2023-03-01T12:04:54;12.80;50.30
75824;DHT22;64457;51.976;9.834;2023-03-01T12:07:34;12.90;54.00
75824;DHT22;64457;51.976;9.834;2023-03-01T12:10:19;12.60;52.80
75824;DHT22;64457;51.976;9.834;2023-03-01T12:13:08;12.70;52.30
75824;DHT22;64457;51.976;9.834;2023-03-01T12:16:02;12.10;54.20
75824;DHT22;64457;51.976;9.834;2023-03-01T12:19:06;11.60;54.10
75824;DHT22;64457;51.976;9.834;2023-03-01T12:21:52;11.90;53.80
75824;DHT22;64457;51.976;9.834;2023-03-01T12:24:39;12.20;55.70
75824;DHT22;64457;51.976;9.834;2023-03-01T12:27:23;12.50;54.40
75824;DHT22;64457;51.976;9.834;2023-03-01T12:30:10;12.50;52.50
75824;DHT22;64457;51.976;9.834;2023-03-01T12:32:54;11.50;53.90
75824;DHT22;64457;51.976;9.834;2023-03-01T12:38:42;11.50;54.30
75824;DHT22;64457;51.976;9.834;2023-03-01T12:41:33;11.50;54.40
75824;DHT22;64457;51.976;9.834;2023-03-01T12:44:15;10.90;52.80
75824;DHT22;64457;51.976;9.834;2023-03-01T12:47:03;10.60;56.70
75824;DHT22;64457;51.976;9.834;2023-03-01T12:49:37;11.20;56.90
75824;DHT22;64457;51.976;9.834;2023-03-01T12:52:13;11.00;53.00
75824;DHT22;64457;51.976;9.834;2023-03-01T12:54:45;10.40;55.60
75824;DHT22;64457;51.976;9.834;2023-03-01T12:57:18;11.10;55.90
75824;DHT22;64457;51.976;9.834;2023-03-01T13:00:10;11.30;55.10
75824;DHT22;64457;51.976;9.834;2023-03-01T13:02:53;11.50;55.20
75824;DHT22;64457;51.976;9.834;2023-03-01T13:05:33;11.70;54.00
75824;DHT22;64457;51.976;9.834;2023-03-01T13:08:09;11.60;54.00
75824;DHT22;64457;51.976;9.834;2023-03-01T13:10:48;11.50;54.40
75824;DHT22;64457;51.976;9.834;2023-03-01T13:13:21;11.80;55.80
75824;DHT22;64457;51.976;9.834;2023-03-01T13:15:49;11.70;56.40
75824;DHT22;64457;51.976;9.834;2023-03-01T13:18:31;12.30;56.00
75824;DHT22;64457;51.976;9.834;2023-03-01T13:21:01;12.30;55.10
75824;DHT22;64457;51.976;9.834;2023-03-01T13:23:33;12.80;54.70
75824;DHT22;64457;51.976;9.834;2023-03-01T13:26:10;12.70;52.70
75824;DHT22;64457;51.976;9.834;2023-03-01T13:28:47;12.90;54.10
75824;DHT22;64457;51.976;9.834;2023-03-01T13:31:55;12.90;53.50
75824;DHT22;64457;51.976;9.834;2023-03-01T13:34:45;12.90;54.50
75824;DHT22;64457;51.976;9.834;2023-03-01T13:37:38;12.70;54.30
75824;DHT22;64457;51.976;9.834;2023-03-01T13:43:31;12.00;54.10
75824;DHT22;64457;51.976;9.834;2023-03-01T13:46:00;11.90;52.70
75824;DHT22;64457;51.976;9.834;2023-03-01T13:48:31;11.90;54.10
75824;DHT22;64457;51.976;9.834;2023-03-01T13:51:02;12.30;55.40
75824;DHT22;64457;51.976;9.834;2023-03-01T13:53:34;12.70;55.30
75824;DHT22;64457;51.976;9.834;2023-03-01T13:56:08;13.00;54.30
75824;DHT22;64457;51.976;9.834;2023-03-01T13:58:49;12.70;53.70
75824;DHT22;64457;51.976;9.834;2023-03-01T14:01:24;12.50;54.30
75824;DHT22;64457;51.976;9.834;2023-03-01T14:03:52;12.40;53.20
75824;DHT22;64457;51.976;9.834;2023-03-01T14:06:21;12.70;55.30
75824;DHT22;64457;51.976;9.834;2023-03-01T14:08:52;12.80;54.00
75824;DHT22;64457;51.976;9.834;2023-03-01T14:11:57;12.70;52.60
75824;DHT22;64457;51.976;9.834;2023-03-01T14:14:53;12.40;55.20
75824;DHT22;64457;51.976;9.834;2023-03-01T14:17:52;12.50;55.30
75824;DHT22;64457;51.976;9.834;2023-03-01T14:20:26;12.40;53.60
75824;DHT22;64457;51.976;9.834;2023-03-01T14:22:56;12.60;53.80
75824;DHT22;64457;51.976;9.834;2023-03-01T14:25:27;12.40;54.20
75824;DHT22;64457;51.976;9.834;2023-03-01T14:28:01;12.30;53.80
75824;DHT22;64457;51.976;9.834;2023-03-01T14:30:35;12.20;54.50
75824;DHT22;64457;51.976;9.834;2023-03-01T14:33:16;12.00;54.80
75824;DHT22;64457;51.976;9.834;2023-03-01T14:35:56;12.10;54.50
75824;DHT22;64457;51.976;9.834;2023-03-01T14:38:30;11.20;52.50
75824;DHT22;64457;51.976;9.834;2023-03-01T14:41:03;11.00;53.10
75824;DHT22;64457;51.976;9.834;2023-03-01T14:43:33;11.00;53.50
75824;DHT22;64457;51.976;9.834;2023-03-01T14:46:02;10.80;54.60
75824;DHT22;64457;51.976;9.834;2023-03-01T14:48:31;10.50;53.00
75824;DHT22;64457;51.976;9.834;2023-03-01T14:50:58;10.50;54.40
75824;DHT22;64457;51.976;9.834;2023-03-01T14:53:28;10.40;54.50
75824;DHT22;64457;51.976;9.834;2023-03-01T14:56:00;10.10;54.60
75824;DHT22;64457;51.976;9.834;2023-03-01T14:58:29;10.40;55.10
75824;DHT22;64457;51.976;9.834;2023-03-01T15:01:00;10.60;52.10
75824;DHT22;64457;51.976;9.834;2023-03-01T15:03:33;10.90;53.60
75824;DHT22;64457;51.976;9.834;2023-03-01T15:06:05;11.20;54.90
75824;DHT22;64457;51.976;9.834;2023-03-01T15:08:34;11.60;53.60
75824;DHT22;64457;51.976;9.834;2023-03-01T15:11:05;11.80;52.70
75824;DHT22;64457;51.976;9.834;2023-03-01T15:13:42;12.10;53.90
75824;DHT22;64457;51.976;9.834;2023-03-01T15:16:17;12.60;53.20
75824;DHT22;64457;51.976;9.834;2023-03-01T15:18:46;12.60;51.70
75824;DHT22;64457;51.976;9.834;2023-03-01T15:21:20;12.40;52.60
75824;DHT22;64457;51.976;9.834;2023-03-01T15:23:52;11.60;52.00
75824;DHT22;64457;51.976;9.834;2023-03-01T15:26:25;11.70;54.60
75824;DHT22;64457;51.976;9.834;2023-03-01T15:28:57;11.60;52.40
75824;DHT22;64457;51.976;9.834;2023-03-01T15:31:29;11.70;54.10
75824;DHT22;64457;51.976;9.834;2023-03-01T15:34:19;11.60;51.80
75824;DHT22;64457;51.976;9.834;2023-03-01T15:36:50;11.30;53.20
75824;DHT22;64457;51.976;9.834;2023-03-01T15:39:31;11.40;53.30
75824;DHT22;64457;51.976;9.834;2023-03-01T15:42:05;11.40;53.40
75824;DHT22;64457;51.976;9.834;2023-03-01T15:44:35;11.20;53.50
75824;DHT22;64457;51.976;9.834;2023-03-01T15:47:21;11.20;53.50
75824;DHT22;64457;51.976;9.834;2023-03-01T15:49:54;10.90;53.30
75824;DHT22;64457;51.976;9.834;2023-03-01T15:52:24;11.10;53.90
75824;DHT22;64457;51.976;9.834;2023-03-01T15:54:56;11.00;53.80
75824;DHT22;64457;51.976;9.834;2023-03-01T15:57:25;11.20;53.20
75824;DHT22;64457;51.976;9.834;2023-03-01T15:59:53;11.20;53.10
75824;DHT22;64457;51.976;9.834;2023-03-01T16:02:23;11.40;53.50
75824;DHT22;64457;51.976;9.834;2023-03-01T16:04:50;11.30;52.60
75824;DHT22;64457;51.976;9.834;2023-03-01T16:07:19;11.40;54.00
75824;DHT22;64457;51.976;9.834;2023-03-01T16:09:46;11.30;52.20
75824;DHT22;64457;51.976;9.834;2023-03-01T16:12:14;11.40;51.50